createdAt,value
2023-04-11T03:02:50.291Z,100243.02
2023-04-11T03:05:22.879Z,100243.08
2023-04-11T03:07:53.708Z,100243.45
2023-04-11T03:10:22.870Z,100243.27
2023-04-11T03:12:51.671Z,100242.10
2023-04-11T03:15:20.946Z,100241.44
2023-04-11T03:17:50.168Z,100239.16
2023-04-11T03:20:20.984Z,100238.21
2023-04-11T03:22:55.397Z,100235.80
2023-04-11T03:25:25.876Z,100234.34
2023-04-11T03:27:54.985Z,100236.34
2023-04-11T03:30:23.459Z,100233.16
2023-04-11T03:32:53.422Z,100228.45
2023-04-11T03:35:21.644Z,100225.73
2023-04-11T03:37:51.128Z,100221.93
2023-04-11T03:40:19.961Z,100216.15
2023-04-11T03:42:54.258Z,100209.66
2023-04-11T03:45:27.032Z,100205.79
2023-04-11T03:47:56.209Z,100202.45
2023-04-11T03:50:28.395Z,100197.23
2023-04-11T03:53:00.439Z,100195.13
2023-04-11T03:55:29.686Z,100194.08
2023-04-11T03:57:59.188Z,100188.14
2023-04-11T04:00:29.305Z,100190.48
2023-04-11T04:03:03.492Z,100194.88
2023-04-11T04:05:33.361Z,100191.80
2023-04-11T04:08:02.484Z,100189.49
2023-04-11T04:10:41.660Z,100186.59
2023-04-11T04:13:12.588Z,100184.73
2023-04-11T04:15:45.096Z,100189.51
2023-04-11T04:18:15.042Z,100186.08
2023-04-11T04:20:50.537Z,100184.35
2023-04-11T04:23:20.672Z,100183.46
2023-04-11T04:26:14.198Z,100178.12
2023-04-11T04:28:48.379Z,100176.23
2023-04-11T04:31:26.449Z,100175.34
2023-04-11T04:34:10.327Z,100179.35
2023-04-11T04:36:48.022Z,100179.36
2023-04-11T04:39:22.351Z,100177.25
2023-04-11T04:42:01.864Z,100179.87
2023-04-11T04:44:36.018Z,100178.65
2023-04-11T04:47:08.508Z,100179.81
2023-04-11T04:49:37.082Z,100178.06
2023-04-11T04:52:06.018Z,100176.50
2023-04-11T04:54:36.172Z,100173.73
2023-04-11T04:57:05.214Z,100164.44
2023-04-11T04:59:34.031Z,100162.23
2023-04-11T05:02:10.479Z,100163.85
2023-04-11T05:04:39.565Z,100156.67
2023-04-11T05:07:08.633Z,100151.77
2023-04-11T05:09:37.494Z,100144.52
2023-04-11T05:12:11.686Z,100141.17
2023-04-11T05:14:40.645Z,100138.53
2023-04-11T05:17:09.484Z,100135.11
2023-04-11T05:19:38.290Z,100135.20
2023-04-11T05:22:06.986Z,100130.83
2023-04-11T05:24:38.873Z,100128.36
2023-04-11T05:27:09.300Z,100122.54
2023-04-11T05:29:37.462Z,100119.95
2023-04-11T05:32:05.764Z,100116.08
2023-04-11T05:34:34.970Z,100114.61
2023-04-11T05:37:03.926Z,100112.34
2023-04-11T05:39:33.640Z,100109.80
2023-04-11T05:42:07.964Z,100111.08
2023-04-11T05:44:37.080Z,100103.69
2023-04-11T05:47:05.651Z,100095.89
2023-04-11T05:49:34.379Z,100088.77
2023-04-11T05:52:02.962Z,100089.61
2023-04-11T05:54:35.545Z,100083.96
2023-04-11T05:57:04.311Z,100079.11
2023-04-11T05:59:33.018Z,100076.66
2023-04-11T06:02:01.880Z,100069.07
2023-04-11T06:04:30.063Z,100072.00
2023-04-11T06:06:59.225Z,100059.14
2023-04-11T06:09:28.457Z,100055.12
2023-04-11T06:11:58.223Z,100051.05
2023-04-11T06:14:27.116Z,100047.59
2023-04-11T06:16:55.852Z,100048.23
2023-04-11T06:19:24.503Z,100039.29
2023-04-11T06:21:53.135Z,100039.00
2023-04-11T06:24:35.279Z,100028.54
2023-04-11T06:27:04.284Z,100024.34
2023-04-11T06:29:33.715Z,100025.29
2023-04-11T06:32:02.481Z,100030.25
2023-04-11T06:34:31.663Z,100020.38
2023-04-11T06:37:00.142Z,100023.02
2023-04-11T06:39:28.631Z,100017.91
2023-04-11T06:41:57.613Z,100017.70
2023-04-11T06:44:27.229Z,100013.39
2023-04-11T06:46:56.384Z,100014.16
2023-04-11T06:49:25.582Z,100014.02
2023-04-11T06:51:55.381Z,100010.20
2023-04-11T06:54:24.152Z,100013.52
2023-04-11T06:56:52.548Z,100009.08
2023-04-11T06:59:22.158Z,100009.60
2023-04-11T07:01:51.407Z,100010.99
2023-04-11T07:04:20.320Z,100006.21
2023-04-11T07:06:49.231Z,100003.78
2023-04-11T07:09:18.038Z,99995.67
2023-04-11T07:11:46.888Z,99995.52
2023-04-11T07:14:16.245Z,99993.68
2023-04-11T07:16:45.433Z,99989.41
2023-04-11T07:19:14.397Z,99986.40
2023-04-11T07:21:43.549Z,99981.20
2023-04-11T07:24:13.792Z,99982.02
2023-04-11T07:26:43.074Z,99973.98
2023-04-11T07:29:14.386Z,99968.65
2023-04-11T07:31:51.255Z,99963.66
2023-04-11T07:34:20.257Z,99957.95
2023-04-11T07:36:50.867Z,99957.15
2023-04-11T07:39:19.985Z,99951.58
2023-04-11T07:41:48.453Z,99947.02
2023-04-11T07:44:17.655Z,99945.26
2023-04-11T07:46:46.782Z,99944.30
2023-04-11T07:49:15.269Z,99941.23
2023-04-11T07:51:44.433Z,99937.58
2023-04-11T07:54:14.153Z,99928.42
2023-04-11T07:56:43.165Z,99928.50
2023-04-11T07:59:16.800Z,99920.62
2023-04-11T08:01:45.949Z,99920.82
2023-04-11T08:04:15.082Z,99915.41
2023-04-11T08:06:45.176Z,99910.36
2023-04-11T08:09:13.996Z,99901.32
2023-04-11T08:11:42.918Z,99908.94
2023-04-11T08:14:11.755Z,99909.42
2023-04-11T08:16:40.471Z,99910.68
2023-04-11T08:19:10.832Z,99905.67
2023-04-11T08:21:39.304Z,99904.30
2023-04-11T08:24:08.665Z,99899.33
2023-04-11T08:26:36.866Z,99895.34
2023-04-11T08:29:05.374Z,99895.45
2023-04-11T08:31:34.487Z,99886.63
2023-04-11T08:34:04.486Z,99885.04
2023-04-11T08:36:34.716Z,99881.39
2023-04-11T08:39:03.597Z,99875.48
2023-04-11T08:41:32.419Z,99877.19
2023-04-11T08:44:01.441Z,99880.75
2023-04-11T08:46:33.090Z,99871.02
2023-04-11T08:49:02.053Z,99873.48
2023-04-11T08:51:34.056Z,99868.45
2023-04-11T08:54:05.214Z,99868.55
2023-04-11T08:56:34.123Z,99868.96
2023-04-11T08:59:06.250Z,99865.35
2023-04-11T09:01:35.896Z,99860.90
2023-04-11T09:04:20.244Z,99865.59
2023-04-11T09:07:01.103Z,99859.49
2023-04-11T09:09:31.916Z,99857.91
2023-04-11T09:12:01.918Z,99850.90
2023-04-11T09:14:31.347Z,99844.85
2023-04-11T09:17:01.202Z,99838.83
2023-04-11T09:19:31.008Z,99834.98
2023-04-11T09:22:01.168Z,99841.40
2023-04-11T09:24:35.077Z,99838.56
2023-04-11T09:27:09.319Z,99835.89
2023-04-11T09:29:38.886Z,99821.69
2023-04-11T09:32:08.370Z,99822.05
2023-04-11T09:34:39.140Z,99816.88
2023-04-11T09:37:11.299Z,99814.44
2023-04-11T09:39:41.626Z,99811.64
2023-04-11T09:42:28.043Z,99808.19
2023-04-11T09:44:56.674Z,99804.26
2023-04-11T09:47:25.373Z,99804.60
2023-04-11T09:49:53.832Z,99800.70
2023-04-11T09:52:22.608Z,99792.98
2023-04-11T09:54:51.874Z,99788.28
2023-04-11T09:57:22.999Z,99781.26
2023-04-11T09:59:54.016Z,99784.16
2023-04-11T10:02:23.478Z,99782.43
2023-04-11T10:04:55.917Z,99776.35
2023-04-11T10:07:25.008Z,99764.17
2023-04-11T10:09:54.281Z,99763.73
2023-04-11T10:12:32.993Z,99759.89
2023-04-11T10:15:11.208Z,99767.55
2023-04-11T10:17:41.280Z,99763.30
2023-04-11T10:20:31.198Z,99765.70
2023-04-11T10:23:01.628Z,99759.29
2023-04-11T10:25:30.644Z,99757.80
2023-04-11T10:28:05.274Z,99757.77
2023-04-11T10:30:39.712Z,99755.00
2023-04-11T10:33:16.658Z,99750.49
2023-04-11T10:35:59.015Z,99744.98
2023-04-11T10:38:49.480Z,99738.89
2023-04-11T10:41:28.324Z,99742.20
2023-04-11T10:44:16.328Z,99729.43
2023-04-11T10:46:46.190Z,99722.86
2023-04-11T10:49:32.816Z,99721.91
2023-04-11T10:52:24.276Z,99717.36
2023-04-11T10:54:54.232Z,99709.80
2023-04-11T10:57:23.550Z,99702.64
2023-04-11T10:59:52.325Z,99704.16
2023-04-11T11:02:22.377Z,99699.44
2023-04-11T11:04:51.858Z,99700.63
2023-04-11T11:07:19.934Z,99694.02
2023-04-11T11:09:49.689Z,99689.17
2023-04-11T11:12:18.682Z,99685.30
2023-04-11T11:14:47.950Z,99680.82
2023-04-11T11:17:17.118Z,99676.42
2023-04-11T11:19:50.802Z,99676.52
2023-04-11T11:22:26.346Z,99669.31
2023-04-11T11:24:55.632Z,99667.72
2023-04-11T11:27:24.825Z,99659.46
2023-04-11T11:29:54.337Z,99656.23
2023-04-11T11:32:27.257Z,99653.52
2023-04-11T11:34:58.072Z,99656.54
2023-04-11T11:37:26.792Z,99657.45
2023-04-11T11:39:55.606Z,99657.89
2023-04-11T11:42:24.384Z,99651.34
2023-04-11T11:44:52.846Z,99652.88
2023-04-11T11:47:21.796Z,99658.17
2023-04-11T11:49:57.439Z,99645.19
2023-04-11T11:52:43.022Z,99650.89
2023-04-11T11:55:20.846Z,99652.10
2023-04-11T11:57:51.401Z,99646.37
2023-04-11T12:00:27.713Z,99645.91
2023-04-11T12:02:57.531Z,99642.83
2023-04-11T12:05:33.299Z,99641.14
2023-04-11T12:08:03.288Z,99644.77
2023-04-11T12:10:42.803Z,99645.24
2023-04-11T12:13:12.827Z,99646.48
2023-04-11T12:15:42.673Z,99638.89
2023-04-11T12:18:11.994Z,99644.73
2023-04-11T12:20:41.266Z,99642.53
2023-04-11T12:23:10.038Z,99638.23
2023-04-11T12:25:38.997Z,99634.71
2023-04-11T12:28:08.514Z,99629.36
2023-04-11T12:30:38.147Z,99624.52
2023-04-11T12:33:06.853Z,99628.00
2023-04-11T12:35:35.687Z,99624.05
2023-04-11T12:38:04.733Z,99621.14
2023-04-11T12:40:33.975Z,99616.13
2023-04-11T12:43:02.427Z,99612.43
2023-04-11T12:45:34.025Z,99609.21
2023-04-11T12:48:02.450Z,99605.73
2023-04-11T12:50:30.734Z,99600.06
2023-04-11T12:52:59.862Z,99597.05
2023-04-11T12:55:29.813Z,99591.30
2023-04-11T12:57:58.979Z,99592.77
2023-04-11T13:00:28.392Z,99586.73
2023-04-11T13:02:58.952Z,99586.59
2023-04-11T13:05:28.277Z,99583.58
2023-04-11T13:07:57.518Z,99577.78
2023-04-11T13:10:27.710Z,99572.64
2023-04-11T13:12:58.662Z,99572.18
2023-04-11T13:15:31.726Z,99565.75
2023-04-11T13:18:00.517Z,99562.82
2023-04-11T13:20:29.540Z,99560.21
2023-04-11T13:22:58.009Z,99559.84
2023-04-11T13:25:28.926Z,99562.04
2023-04-11T13:27:58.214Z,99559.25
2023-04-11T13:30:27.412Z,99553.86
2023-04-11T13:32:56.666Z,99549.46
2023-04-11T13:35:26.129Z,99550.69
2023-04-11T13:37:56.453Z,99552.67
2023-04-11T13:40:25.232Z,99549.96
2023-04-11T13:42:55.071Z,99541.75
2023-04-11T13:45:23.880Z,99536.31
2023-04-11T13:47:52.337Z,99533.71
2023-04-11T13:50:21.371Z,99524.31
2023-04-11T13:52:49.409Z,99527.06
2023-04-11T13:55:18.071Z,99528.08
2023-04-11T13:57:46.940Z,99523.61
2023-04-11T14:00:16.094Z,99529.02
2023-04-11T14:02:45.039Z,99524.67
2023-04-11T14:05:14.995Z,99522.06
2023-04-11T14:07:43.922Z,99523.02
2023-04-11T14:10:12.875Z,99523.52
2023-04-11T14:12:42.568Z,99518.86
2023-04-11T14:15:12.140Z,99526.44
2023-04-11T14:17:40.844Z,99522.40
2023-04-11T14:20:12.264Z,99521.48
2023-04-11T14:22:42.058Z,99518.86
2023-04-11T14:25:11.573Z,99517.57
2023-04-11T14:27:41.652Z,99516.31
2023-04-11T14:30:11.459Z,99505.08
2023-04-11T14:32:41.061Z,99507.97
2023-04-11T14:35:10.038Z,99503.91
2023-04-11T14:37:38.666Z,99501.27
2023-04-11T14:40:11.497Z,99496.41
2023-04-11T14:42:40.473Z,99490.48
2023-04-11T14:45:08.775Z,99489.08
2023-04-11T14:47:42.498Z,99484.13
2023-04-11T14:50:12.680Z,99479.27
2023-04-11T14:52:41.356Z,99483.08
2023-04-11T14:55:09.479Z,99479.39
2023-04-11T14:57:47.608Z,99479.73
2023-04-11T15:00:20.315Z,99470.65
2023-04-11T15:02:51.985Z,99465.98
2023-04-11T15:05:21.927Z,99464.01
2023-04-11T15:07:52.287Z,99461.01
2023-04-11T15:10:22.590Z,99456.08
2023-04-11T15:12:51.239Z,99455.34
2023-04-11T15:15:19.275Z,99456.31
2023-04-11T15:17:49.075Z,99451.76
2023-04-11T15:20:17.439Z,99454.84
2023-04-11T15:22:46.673Z,99455.70
2023-04-11T15:25:16.897Z,99449.01
2023-04-11T15:27:44.952Z,99452.00
2023-04-11T15:30:13.278Z,99447.77
2023-04-11T15:32:45.277Z,99450.14
2023-04-11T15:35:13.923Z,99449.41
2023-04-11T15:37:42.204Z,99447.07
2023-04-11T15:40:12.617Z,99445.35
2023-04-11T15:42:41.745Z,99437.98
2023-04-11T15:45:10.657Z,99441.22
2023-04-11T15:47:39.953Z,99441.27
2023-04-11T15:50:08.285Z,99439.86
2023-04-11T15:52:37.513Z,99436.96
2023-04-11T15:55:07.139Z,99438.03
2023-04-11T15:57:35.887Z,99433.20
2023-04-11T16:00:09.085Z,99433.58
2023-04-11T16:02:38.406Z,99434.27
2023-04-11T16:05:08.019Z,99434.36
2023-04-11T16:07:36.924Z,99433.73
2023-04-11T16:10:06.350Z,99434.27
2023-04-11T16:12:35.685Z,99432.55
2023-04-11T16:15:04.666Z,99434.95
2023-04-11T16:17:36.043Z,99432.15
2023-04-11T16:20:09.656Z,99432.98
2023-04-11T16:22:40.863Z,99435.63
2023-04-11T16:25:10.638Z,99438.24
2023-04-11T16:27:39.331Z,99436.52
2023-04-11T16:30:10.707Z,99436.07
2023-04-11T16:32:38.914Z,99435.23
2023-04-11T16:35:08.824Z,99431.80
2023-04-11T16:37:38.272Z,99436.40
2023-04-11T16:40:12.200Z,99435.20
2023-04-11T16:42:41.695Z,99429.58
2023-04-11T16:45:10.406Z,99433.66
2023-04-11T16:47:38.570Z,99429.76
2023-04-11T16:50:07.462Z,99431.39
2023-04-11T16:52:35.646Z,99429.88
2023-04-11T16:55:04.162Z,99426.66
2023-04-11T16:57:33.773Z,99426.34
2023-04-11T17:00:07.288Z,99431.23
2023-04-11T17:02:35.900Z,99430.44
2023-04-11T17:05:04.581Z,99432.61
2023-04-11T17:07:33.794Z,99434.31
2023-04-11T17:10:03.112Z,99435.86
2023-04-11T17:12:31.979Z,99438.40
2023-04-11T17:15:00.577Z,99437.48
2023-04-11T17:17:28.959Z,99434.66
2023-04-11T17:19:57.326Z,99437.31
2023-04-11T17:22:26.833Z,99437.42
2023-04-11T17:24:56.008Z,99440.61
2023-04-11T17:27:24.268Z,99444.84
2023-04-11T17:29:53.612Z,99448.61
2023-04-11T17:32:22.337Z,99448.54
2023-04-11T17:34:51.202Z,99452.87
2023-04-11T17:37:21.768Z,99457.36
2023-04-11T17:39:50.041Z,99458.61
2023-04-11T17:42:18.575Z,99466.84
2023-04-11T17:44:47.428Z,99478.11
2023-04-11T17:47:16.863Z,99488.86
2023-04-11T17:49:48.118Z,99492.11
2023-04-11T17:52:20.937Z,99495.83
2023-04-11T17:54:54.411Z,99498.59
2023-04-11T17:57:23.686Z,99500.02
2023-04-11T17:59:52.125Z,99506.65
2023-04-11T18:02:22.864Z,99510.71
2023-04-11T18:04:57.592Z,99512.92
2023-04-11T18:07:31.357Z,99516.38
2023-04-11T18:10:05.171Z,99522.76
2023-04-11T18:12:39.012Z,99523.38
2023-04-11T18:15:16.646Z,99533.77
2023-04-11T18:17:50.677Z,99539.95
2023-04-11T18:20:28.395Z,99537.88
2023-04-11T18:23:05.414Z,99542.86
2023-04-11T18:25:42.679Z,99546.80
2023-04-11T18:28:13.579Z,99543.45
2023-04-11T18:30:52.917Z,99546.52
2023-04-11T18:33:27.923Z,99545.89
2023-04-11T18:35:56.873Z,99552.86
2023-04-11T18:38:26.717Z,99554.71
2023-04-11T18:40:56.472Z,99558.77
2023-04-11T18:43:27.517Z,99558.20
2023-04-11T18:45:55.498Z,99558.24
2023-04-11T18:48:23.768Z,99559.23
2023-04-11T18:50:59.059Z,99560.91
2023-04-11T18:53:28.603Z,99566.75
2023-04-11T18:55:58.884Z,99567.55
2023-04-11T18:58:30.178Z,99566.21
2023-04-11T19:00:59.568Z,99564.99
2023-04-11T19:03:30.177Z,99570.29
2023-04-11T19:05:59.474Z,99571.09
2023-04-11T19:08:27.768Z,99570.60
2023-04-11T19:10:56.917Z,99572.35
2023-04-11T19:13:25.880Z,99570.38
2023-04-11T19:15:54.360Z,99570.14
2023-04-11T19:18:22.799Z,99572.25
2023-04-11T19:20:52.250Z,99573.02
2023-04-11T19:23:20.328Z,99572.86
2023-04-11T19:25:49.656Z,99570.65
2023-04-11T19:28:18.308Z,99571.52
2023-04-11T19:30:47.548Z,99570.24
2023-04-11T19:33:15.505Z,99571.64
2023-04-11T19:35:43.875Z,99571.45
2023-04-11T19:38:12.660Z,99571.63
2023-04-11T19:40:40.903Z,99572.58
2023-04-11T19:43:09.124Z,99573.59
2023-04-11T19:45:40.116Z,99572.55
2023-04-11T19:48:08.911Z,99573.28
2023-04-11T19:50:37.322Z,99570.58
2023-04-11T19:53:05.656Z,99566.45
2023-04-11T19:55:33.864Z,99564.56
2023-04-11T19:58:03.348Z,99560.95
2023-04-11T20:00:36.606Z,99556.23
2023-04-11T20:03:07.948Z,99555.69
2023-04-11T20:05:36.734Z,99555.80
2023-04-11T20:08:04.979Z,99562.63
2023-04-11T20:10:34.555Z,99568.83
2023-04-11T20:13:03.757Z,99563.43
2023-04-11T20:15:33.574Z,99563.75
2023-04-11T20:18:02.434Z,99564.08
2023-04-11T20:20:33.701Z,99563.56
2023-04-11T20:23:05.335Z,99566.47
2023-04-11T20:25:34.945Z,99569.21
2023-04-11T20:28:03.641Z,99567.16
2023-04-11T20:30:32.635Z,99565.81
2023-04-11T20:33:01.884Z,99561.23
2023-04-11T20:35:30.470Z,99557.60
2023-04-11T20:37:59.145Z,99558.52
2023-04-11T20:40:27.533Z,99560.70
2023-04-11T20:42:58.045Z,99561.30
2023-04-11T20:45:27.879Z,99556.92
2023-04-11T20:47:59.796Z,99559.46
2023-04-11T20:50:33.647Z,99559.94
2023-04-11T20:53:02.498Z,99564.69
2023-04-11T20:55:33.506Z,99568.39
2023-04-11T20:58:02.383Z,99573.48
2023-04-11T21:00:34.054Z,99574.20
2023-04-11T21:03:02.870Z,99573.94
2023-04-11T21:05:31.867Z,99577.04
2023-04-11T21:08:00.776Z,99576.48
2023-04-11T21:10:29.150Z,99573.56
2023-04-11T21:12:57.949Z,99575.08
2023-04-11T21:15:26.895Z,99575.98
2023-04-11T21:17:55.839Z,99576.95
2023-04-11T21:20:24.882Z,99580.67
2023-04-11T21:22:54.382Z,99581.20
2023-04-11T21:25:25.584Z,99584.84
2023-04-11T21:27:54.624Z,99591.97
2023-04-11T21:30:24.121Z,99603.71
2023-04-11T21:32:53.019Z,99608.99
2023-04-11T21:35:21.871Z,99608.75
2023-04-11T21:37:50.522Z,99603.70
2023-04-11T21:40:19.051Z,99605.96
2023-04-11T21:42:47.698Z,99606.58
2023-04-11T21:45:16.825Z,99611.13
2023-04-11T21:47:47.263Z,99617.48
2023-04-11T21:50:15.825Z,99624.23
2023-04-11T21:52:45.132Z,99624.59
2023-04-11T21:55:18.549Z,99633.02
2023-04-11T21:57:47.599Z,99631.84
2023-04-11T22:00:15.991Z,99624.25
2023-04-11T22:02:44.823Z,99620.03
2023-04-11T22:05:14.107Z,99613.92
2023-04-11T22:07:49.193Z,99608.76
2023-04-11T22:10:23.955Z,99598.45
2023-04-11T22:12:55.114Z,99587.08
2023-04-11T22:15:24.580Z,99584.10
2023-04-11T22:17:56.777Z,99580.14
2023-04-11T22:20:25.499Z,99586.15
2023-04-11T22:22:54.531Z,99596.42
2023-04-11T22:25:25.405Z,99601.39
2023-04-11T22:27:55.377Z,99598.95
2023-04-11T22:30:24.701Z,99594.84
2023-04-11T22:32:55.033Z,99595.98
2023-04-11T22:35:26.537Z,99597.36
2023-04-11T22:37:59.857Z,99597.23
2023-04-11T22:40:27.931Z,99597.24
2023-04-11T22:42:57.363Z,99591.98
2023-04-11T22:45:26.436Z,99591.35
2023-04-11T22:47:57.526Z,99589.30
2023-04-11T22:50:29.357Z,99580.38
2023-04-11T22:53:02.898Z,99582.93
2023-04-11T22:55:34.746Z,99588.89
2023-04-11T22:58:03.988Z,99587.34
2023-04-11T23:00:38.760Z,99586.77
2023-04-11T23:03:07.917Z,99587.38
2023-04-11T23:05:42.870Z,99594.27
2023-04-11T23:08:11.736Z,99594.26
2023-04-11T23:10:40.227Z,99594.23
2023-04-11T23:13:08.855Z,99595.27
2023-04-11T23:15:37.958Z,99592.56
2023-04-11T23:18:07.446Z,99593.50
2023-04-11T23:20:37.723Z,99590.80
2023-04-11T23:23:06.443Z,99585.76
2023-04-11T23:25:39.641Z,99583.27
2023-04-11T23:28:09.025Z,99580.45
2023-04-11T23:30:37.664Z,99578.02
2023-04-11T23:33:08.961Z,99574.30
2023-04-11T23:35:38.565Z,99575.91
2023-04-11T23:38:07.611Z,99578.60
2023-04-11T23:40:36.320Z,99581.45
2023-04-11T23:43:05.016Z,99583.58
2023-04-11T23:45:33.914Z,99578.30
2023-04-11T23:48:02.573Z,99578.71
2023-04-11T23:50:31.988Z,99578.27
2023-04-11T23:53:01.150Z,99576.83
2023-04-11T23:55:30.624Z,99576.45
2023-04-11T23:58:02.264Z,99568.60
